Time;durP1;ratioP1;P1;durP2;ratioP2;P2;SDS_P1;SDS_P2;PMS_P1;PMS_P2;Temp;Humidity;BMP_temperature;BMP_pressure;BME280_temperature;BME280_humidity;BME280_pressure;Samples;Min_cycle;Max_cycle;Signal;HPM_P1;HPM_P2
2022/03/10 00:01:29;;;;;;;;;;;;;;;13.45;39.86;101845.97;4963608;28;98250;-63
2022/03/10 00:03:55;;;;;;;;;;;;;;;13.43;40.20;101844.56;4982541;28;99114;-64
2022/03/10 00:06:21;;;;;;;;;;;;;;;13.41;40.02;101844.03;4970482;28;119289;-65
2022/03/10 00:08:47;;;;;;;;;;;;;;;13.40;40.04;101850.50;4961246;28;127356;-62
2022/03/10 00:11:13;;;;;;;;;;;;;;;13.37;40.07;101849.13;4961545;28;117799;-65
2022/03/10 00:13:39;;;;;;;;;;;;;;;13.36;39.92;101857.50;4962620;28;99114;-63
2022/03/10 00:16:05;;;;;;;;;;;;;;;13.35;40.22;101861.28;4942621;28;128885;-63
2022/03/10 00:18:31;;;;;;;;;;;;;;;13.34;40.01;101865.06;4943334;28;125484;-65
2022/03/10 00:20:56;;;;;;;;;;;;;;;13.32;40.12;101865.28;4961385;28;116371;-62
2022/03/10 00:23:22;;;;;;;;;;;;;;;13.30;39.86;101862.03;4961115;28;118990;-65
2022/03/10 00:25:48;;;;;;;;;;;;;;;13.29;40.04;101871.25;4942354;28;127643;-65
2022/03/10 00:28:14;;;;;;;;;;;;;;;13.26;39.96;101869.03;4962138;28;98246;-63
2022/03/10 00:30:40;;;;;;;;;;;;;;;13.25;39.92;101868.22;4960905;28;117843;-65
2022/03/10 00:33:06;;;;;;;;;;;;;;;13.24;40.18;101868.44;4942566;28;128079;-63
2022/03/10 00:35:32;;;;;;;;;;;;;;;13.23;40.04;101874.94;4961871;28;127291;-65
2022/03/10 00:37:58;;;;;;;;;;;;;;;13.21;39.94;101875.16;4982241;28;98090;-65
2022/03/10 00:40:25;;;;;;;;;;;;;;;13.20;39.99;101878.94;4980731;28;117995;-65
2022/03/10 00:42:51;;;;;;;;;;;;;;;13.18;40.02;101880.25;4978003;28;98322;-62
2022/03/10 00:45:17;;;;;;;;;;;;;;;13.17;40.11;101875.91;4960907;28;123335;-65
2022/03/10 00:47:42;;;;;;;;;;;;;;;13.16;40.13;101882.38;4961098;28;112390;-62
2022/03/10 00:50:09;;;;;;;;;;;;;;;13.14;40.16;101885.34;4942407;28;116229;-65
2022/03/10 00:52:45;;;;;;;;;;;;;;;13.13;40.17;101889.13;4961475;28;99988;-65
2022/03/10 00:55:12;;;;;;;;;;;;;;;13.12;40.17;101889.38;4959584;28;123000;-65
2022/03/10 00:57:38;;;;;;;;;;;;;;;13.09;40.08;101888.00;4961318;28;98320;-65
2022/03/10 01:00:05;;;;;;;;;;;;;;;13.08;40.16;101883.63;4961986;28;98102;-63
2022/03/10 01:02:32;;;;;;;;;;;;;;;13.07;40.17;101889.31;4961897;28;98508;-63
2022/03/10 01:04:58;;;;;;;;;;;;;;;13.03;40.48;101887.09;4961389;28;98500;-62
2022/03/10 01:07:24;;;;;;;;;;;;;;;13.05;40.10;101896.84;4962084;28;121445;-66
2022/03/10 01:09:51;;;;;;;;;;;;;;;13.02;40.46;101898.19;4960293;28;116967;-66
2022/03/10 01:12:17;;;;;;;;;;;;;;;12.99;40.27;101896.78;4962275;28;98438;-66
2022/03/10 01:14:43;;;;;;;;;;;;;;;12.98;40.03;101902.44;4960417;28;98714;-65
2022/03/10 01:17:09;;;;;;;;;;;;;;;12.96;40.25;101897.28;4959519;28;114041;-63
2022/03/10 01:19:35;;;;;;;;;;;;;;;12.95;40.31;101897.53;4960377;28;116886;-63
2022/03/10 01:22:01;;;;;;;;;;;;;;;12.93;40.22;101897.78;4960106;28;126814;-63
2022/03/10 01:24:27;;;;;;;;;;;;;;;12.92;40.21;101892.59;4976819;28;111785;-66
2022/03/10 01:26:53;;;;;;;;;;;;;;;12.90;40.28;101898.28;4980554;28;121913;-63
2022/03/10 01:29:19;;;;;;;;;;;;;;;12.88;40.36;101897.69;4979174;28;97957;-63
2022/03/10 01:31:45;;;;;;;;;;;;;;;12.87;40.35;101897.97;4942352;28;98184;-63
2022/03/10 01:34:12;;;;;;;;;;;;;;;12.86;40.09;101899.84;4960908;28;98265;-66
2022/03/10 01:36:37;;;;;;;;;;;;;;;12.84;40.19;101901.97;4961104;28;98065;-63
2022/03/10 01:39:04;;;;;;;;;;;;;;;12.83;40.25;101896.81;4959883;28;117561;-65
2022/03/10 01:41:33;;;;;;;;;;;;;;;12.82;40.11;101897.88;4960807;28;98337;-63
2022/03/10 01:44:08;;;;;;;;;;;;;;;12.80;40.18;101895.41;4960254;28;119750;-65
2022/03/10 01:46:34;;;;;;;;;;;;;;;12.77;40.26;101896.75;4942628;28;98311;-66
2022/03/10 01:49:00;;;;;;;;;;;;;;;12.77;40.08;101904.88;4960374;28;110630;-66
2022/03/10 01:51:26;;;;;;;;;;;;;;;12.74;40.47;101899.94;4967843;28;99220;-63
2022/03/10 01:53:52;;;;;;;;;;;;;;;12.73;40.32;101897.47;4961704;28;99098;-63
2022/03/10 01:56:19;;;;;;;;;;;;;;;12.71;40.56;101899.59;4980798;28;98475;-66
2022/03/10 01:58:46;;;;;;;;;;;;;;;12.70;40.34;101904.19;4981531;28;97898;-63
2022/03/10 02:01:12;;;;;;;;;;;;;;;12.69;40.34;101907.97;4979689;28;99454;-65
2022/03/10 02:03:38;;;;;;;;;;;;;;;12.68;40.34;101900.09;4979343;28;103485;-66
2022/03/10 02:06:05;;;;;;;;;;;;;;;12.67;40.42;101904.69;4980023;28;111019;-66
2022/03/10 02:11:16;;;;;;;;;;;;;;;12.64;40.43;101905.19;4973984;28;98431;-63
2022/03/10 02:13:41;;;;;;;;;;;;;;;12.62;40.37;101907.31;4978870;28;127219;-64
2022/03/10 02:18:58;;;;;;;;;;;;;;;12.60;40.30;101909.44;4961100;28;97954;-63
2022/03/10 02:21:24;;;;;;;;;;;;;;;12.59;40.42;101907.81;4979931;28;111313;-63
2022/03/10 02:23:50;;;;;;;;;;;;;;;12.59;40.23;101915.09;4980648;28;98219;-65
2022/03/10 02:26:16;;;;;;;;;;;;;;;12.57;40.55;101917.22;4968091;28;126112;-64
2022/03/10 02:28:42;;;;;;;;;;;;;;;12.56;40.58;101927.22;4959889;28;117351;-66
2022/03/10 02:31:09;;;;;;;;;;;;;;;12.55;40.58;101924.78;4958935;28;128849;-65
2022/03/10 02:33:35;;;;;;;;;;;;;;;12.54;40.53;101932.06;4959921;28;108756;-63
2022/03/10 02:36:01;;;;;;;;;;;;;;;12.52;40.61;101924.19;4958591;28;127467;-63
2022/03/10 02:38:27;;;;;;;;;;;;;;;12.51;40.34;101917.16;4961357;28;98331;-63
2022/03/10 02:40:53;;;;;;;;;;;;;;;12.51;40.59;101921.75;4958690;28;128091;-61
2022/03/10 02:43:19;;;;;;;;;;;;;;;12.49;40.42;101924.66;4940386;28;128375;-63
2022/03/10 02:45:45;;;;;;;;;;;;;;;12.49;40.61;101926.56;4960616;28;119130;-63
2022/03/10 02:48:15;;;;;;;;;;;;;;;12.47;40.56;101940.34;4959328;28;111170;-66
2022/03/10 02:50:42;;;;;;;;;;;;;;;12.46;40.40;101933.31;4960285;28;98152;-63
2022/03/10 02:53:08;;;;;;;;;;;;;;;12.44;40.46;101934.59;4959054;28;99002;-65
2022/03/10 02:55:34;;;;;;;;;;;;;;;12.43;40.78;101936.50;4959493;28;98382;-62
2022/03/10 02:58:00;;;;;;;;;;;;;;;12.42;40.63;101940.25;4961580;28;97673;-66
2022/03/10 03:00:26;;;;;;;;;;;;;;;12.40;40.79;101938.84;4959303;28;126081;-63
2022/03/10 03:02:52;;;;;;;;;;;;;;;12.37;40.55;101937.44;4960297;28;101760;-65
2022/03/10 03:05:18;;;;;;;;;;;;;;;12.39;40.73;101942.63;4958943;28;98389;-65
2022/03/10 03:07:44;;;;;;;;;;;;;;;12.37;40.79;101944.75;4960790;28;97674;-66
2022/03/10 03:10:10;;;;;;;;;;;;;;;12.34;40.67;101940.66;4959130;28;98686;-65
2022/03/10 03:12:52;;;;;;;;;;;;;;;12.33;40.45;101939.00;4958910;28;122327;-66
2022/03/10 03:15:18;;;;;;;;;;;;;;;12.31;40.59;101943.84;4973577;28;98553;-66
2022/03/10 03:17:44;;;;;;;;;;;;;;;12.30;40.94;101944.91;4981062;27;108281;-66
2022/03/10 03:20:14;;;;;;;;;;;;;;;12.29;40.83;101945.97;4981228;28;128432;-66
2022/03/10 03:22:41;;;;;;;;;;;;;;;12.27;40.76;101943.50;4964782;28;98318;-66
2022/03/10 03:25:12;;;;;;;;;;;;;;;12.26;40.66;101943.72;4982371;28;98103;-65
2022/03/10 03:27:38;;;;;;;;;;;;;;;12.25;40.78;101955.63;4982023;28;98644;-63
2022/03/10 03:30:05;;;;;;;;;;;;;;;12.24;40.81;101954.81;4982054;28;128839;-63
2022/03/10 03:32:31;;;;;;;;;;;;;;;12.22;40.63;101956.94;4983406;28;98465;-66
2022/03/10 03:34:57;;;;;;;;;;;;;;;12.22;41.06;101959.66;4982204;28;120700;-63
2022/03/10 03:37:23;;;;;;;;;;;;;;;12.21;40.94;101967.97;4983022;28;117560;-64
2022/03/10 03:39:49;;;;;;;;;;;;;;;12.20;40.84;101964.47;4981105;28;128160;-65
2022/03/10 03:42:15;;;;;;;;;;;;;;;12.19;41.01;101970.94;4976530;28;127977;-64
2022/03/10 03:44:41;;;;;;;;;;;;;;;12.18;40.62;101966.59;4960874;28;124586;-65
2022/03/10 03:47:07;;;;;;;;;;;;;;;12.18;41.07;101982.81;4962358;28;117692;-67
2022/03/10 03:49:33;;;;;;;;;;;;;;;12.16;40.97;101976.81;4960516;28;127847;-66
2022/03/10 03:51:58;;;;;;;;;;;;;;;12.15;40.97;101977.06;4962039;28;127521;-63
2022/03/10 03:54:24;;;;;;;;;;;;;;;12.14;40.99;101980.81;4961121;28;127002;-65
2022/03/10 03:56:50;;;;;;;;;;;;;;;12.13;40.91;101990.81;4961189;28;116788;-66
2022/03/10 03:59:16;;;;;;;;;;;;;;;12.11;40.88;101987.53;4944096;28;120613;-65
2022/03/10 04:01:42;;;;;;;;;;;;;;;12.11;40.78;101986.72;4961098;28;128245;-63
2022/03/10 04:04:08;;;;;;;;;;;;;;;12.09;40.96;101997.75;4961516;28;121689;-66
2022/03/10 04:06:34;;;;;;;;;;;;;;;12.09;40.67;101999.66;4961656;28;116093;-66
2022/03/10 04:09:00;;;;;;;;;;;;;;;12.08;40.75;102003.41;4969617;28;128114;-66
2022/03/10 04:11:26;;;;;;;;;;;;;;;12.06;41.00;102000.94;4981490;28;127611;-66
2022/03/10 04:13:52;;;;;;;;;;;;;;;12.03;40.78;101998.75;4963025;28;122582;-63
2022/03/10 04:16:18;;;;;;;;;;;;;;;12.02;40.74;102006.03;4964262;28;98465;-63
2022/03/10 04:18:44;;;;;;;;;;;;;;;12.02;40.69;102008.72;4981440;28;127932;-63
2022/03/10 04:21:10;;;;;;;;;;;;;;;12.00;41.20;102008.13;4981104;28;127831;-63
2022/03/10 04:23:36;;;;;;;;;;;;;;;11.99;40.82;101997.56;4981165;28;127523;-63
2022/03/10 04:26:01;;;;;;;;;;;;;;;11.98;40.84;102006.72;4979971;28;97914;-67
2022/03/10 04:28:28;;;;;;;;;;;;;;;11.96;41.13;102012.38;4979674;27;126029;-63
2022/03/10 04:30:54;;;;;;;;;;;;;;;11.94;40.96;102011.78;4981240;28;98397;-63
2022/03/10 04:33:20;;;;;;;;;;;;;;;11.93;40.63;102007.44;4981780;28;97735;-62
2022/03/10 04:35:46;;;;;;;;;;;;;;;11.92;41.01;102011.22;4974335;28;115141;-65
2022/03/10 04:38:12;;;;;;;;;;;;;;;11.90;41.19;102007.91;4944873;28;99038;-65
2022/03/10 04:40:38;;;;;;;;;;;;;;;11.90;41.15;102012.50;4941509;28;98694;-62
2022/03/10 04:43:04;;;;;;;;;;;;;;;11.89;40.65;102016.28;4940946;28;128497;-65
2022/03/10 04:45:30;;;;;;;;;;;;;;;11.87;40.84;102019.22;4954645;28;117583;-63
2022/03/10 04:47:56;;;;;;;;;;;;;;;11.86;40.79;102017.56;4959485;28;127827;-63
2022/03/10 04:50:22;;;;;;;;;;;;;;;11.85;40.68;102018.63;4942169;28;126961;-66
2022/03/10 04:52:48;;;;;;;;;;;;;;;11.84;40.73;102021.56;4960306;28;128048;-66
2022/03/10 04:55:14;;;;;;;;;;;;;;;11.83;40.66;102022.59;4949336;28;105013;-63
2022/03/10 04:57:40;;;;;;;;;;;;;;;11.81;40.97;102022.84;4924029;28;98842;-66
2022/03/10 05:00:10;;;;;;;;;;;;;;;11.80;40.98;102007.69;4941520;28;98406;-65
2022/03/10 05:02:39;;;;;;;;;;;;;;;11.78;41.26;102018.72;4942416;28;97873;-66
2022/03/10 05:05:06;;;;;;;;;;;;;;;11.78;41.14;102029.53;4950257;28;97811;-66
2022/03/10 05:07:32;;;;;;;;;;;;;;;11.77;40.98;102025.19;4961642;28;98865;-63
2022/03/10 05:09:58;;;;;;;;;;;;;;;11.76;40.68;102018.16;4959815;28;129104;-63
2022/03/10 05:12:25;;;;;;;;;;;;;;;11.76;40.87;102026.25;4961032;28;127317;-66
2022/03/10 05:14:51;;;;;;;;;;;;;;;11.75;40.98;102021.06;4961312;28;97726;-63
2022/03/10 05:17:17;;;;;;;;;;;;;;;11.73;40.88;102020.50;4960380;28;122164;-65
2022/03/10 05:19:43;;;;;;;;;;;;;;;11.74;41.00;102024.84;4960221;28;99352;-65
2022/03/10 05:22:09;;;;;;;;;;;;;;;11.72;41.33;102025.09;4967785;28;127463;-65
2022/03/10 05:24:35;;;;;;;;;;;;;;;11.72;41.01;102029.66;4958127;28;118137;-65
2022/03/10 05:27:01;;;;;;;;;;;;;;;11.71;40.85;102030.69;4959151;28;126841;-63
2022/03/10 05:29:27;;;;;;;;;;;;;;;11.69;40.82;102032.84;4959660;28;98330;-65
2022/03/10 05:31:54;;;;;;;;;;;;;;;11.69;41.21;102030.13;4959769;28;98303;-63
2022/03/10 05:34:20;;;;;;;;;;;;;;;11.68;41.01;102032.03;4959852;28;97984;-63
2022/03/10 05:36:45;;;;;;;;;;;;;;;11.69;40.87;102038.25;4968450;28;99768;-64
2022/03/10 05:39:11;;;;;;;;;;;;;;;11.69;40.85;102047.16;4963079;27;128296;-66
2022/03/10 05:41:37;;;;;;;;;;;;;;;11.69;41.28;102049.88;4975924;28;120518;-67
2022/03/10 05:44:03;;;;;;;;;;;;;;;11.71;41.10;102055.00;4976710;28;117242;-66
2022/03/10 05:46:29;;;;;;;;;;;;;;;11.71;41.29;102049.63;4957731;28;99534;-66
2022/03/10 05:48:55;;;;;;;;;;;;;;;11.71;41.38;102049.63;4976876;28;109027;-63
2022/03/10 05:51:21;;;;;;;;;;;;;;;11.71;40.93;102050.47;4957217;28;125864;-63
2022/03/10 05:53:50;;;;;;;;;;;;;;;11.74;40.89;102057.25;4962417;28;117329;-66
2022/03/10 05:56:17;;;;;;;;;;;;;;;11.75;40.96;102059.72;4980429;28;98342;-65
2022/03/10 05:58:43;;;;;;;;;;;;;;;11.77;40.58;102057.59;4975709;28;119162;-66
2022/03/10 06:01:09;;;;;;;;;;;;;;;11.79;40.71;102057.38;4960072;28;127718;-63
2022/03/10 06:03:34;;;;;;;;;;;;;;;11.82;40.95;102051.47;4959751;28;115301;-64
2022/03/10 06:06:00;;;;;;;;;;;;;;;11.86;40.75;102054.56;4941814;28;99556;-63
2022/03/10 06:08:26;;;;;;;;;;;;;;;11.88;40.98;102053.28;4941024;28;126444;-64
2022/03/10 06:10:52;;;;;;;;;;;;;;;11.92;40.73;102059.03;4960756;28;98416;-63
2022/03/10 06:13:18;;;;;;;;;;;;;;;11.95;40.85;102059.38;4960118;28;116794;-63
2022/03/10 06:15:45;;;;;;;;;;;;;;;11.99;40.66;102060.56;4958242;28;129113;-66
2022/03/10 06:18:12;;;;;;;;;;;;;;;12.03;41.17;102061.72;4960533;28;97877;-63
2022/03/10 06:20:38;;;;;;;;;;;;;;;12.07;41.02;102058.53;4960787;28;98445;-63
2022/03/10 06:23:03;;;;;;;;;;;;;;;12.11;41.17;102063.22;4959555;28;117746;-65
2022/03/10 06:25:30;;;;;;;;;;;;;;;12.16;40.89;102068.72;4959727;28;99172;-65
2022/03/10 06:27:56;;;;;;;;;;;;;;;12.22;41.13;102064.22;4958710;28;98522;-63
2022/03/10 06:30:22;;;;;;;;;;;;;;;12.26;40.97;102070.81;4940684;28;127865;-63
2022/03/10 06:32:48;;;;;;;;;;;;;;;12.29;41.13;102070.34;4943164;28;97953;-63
2022/03/10 06:35:13;;;;;;;;;;;;;;;12.38;40.81;102078.88;4938760;28;127128;-65
2022/03/10 06:37:39;;;;;;;;;;;;;;;12.44;41.16;102083.34;4960188;28;127346;-65
2022/03/10 06:40:06;;;;;;;;;;;;;;;12.50;41.28;102079.69;4960286;28;97859;-63
2022/03/10 06:42:33;;;;;;;;;;;;;;;12.56;41.10;102088.72;4941082;28;108220;-63
2022/03/10 06:44:59;;;;;;;;;;;;;;;12.62;41.06;102085.06;4940655;28;100474;-65
2022/03/10 06:47:25;;;;;;;;;;;;;;;12.67;41.19;102095.94;4942177;28;98557;-65
2022/03/10 06:49:51;;;;;;;;;;;;;;;12.72;41.16;102091.44;4960127;28;98232;-62
2022/03/10 06:52:19;;;;;;;;;;;;;;;12.78;41.21;102104.03;4961086;28;116627;-66
2022/03/10 06:54:45;;;;;;;;;;;;;;;12.85;41.21;102095.75;4965861;28;98082;-65
2022/03/10 06:57:12;;;;;;;;;;;;;;;12.91;41.03;102093.94;4982478;28;126457;-63
2022/03/10 06:59:38;;;;;;;;;;;;;;;12.97;41.20;102093.00;4982199;28;98327;-64
2022/03/10 07:02:04;;;;;;;;;;;;;;;13.04;41.26;102090.94;4984022;28;98037;-63
2022/03/10 07:04:31;;;;;;;;;;;;;;;13.13;41.32;102096.78;4982328;28;110067;-66
2022/03/10 07:06:57;;;;;;;;;;;;;;;13.19;41.31;102093.91;4983306;28;99198;-65
2022/03/10 07:09:22;;;;;;;;;;;;;;;13.26;41.35;102093.78;4982889;28;98675;-64
2022/03/10 07:11:48;;;;;;;;;;;;;;;13.36;41.44;102093.94;4974701;28;110406;-63
2022/03/10 07:14:14;;;;;;;;;;;;;;;13.45;41.22;102097.88;4964338;28;98476;-63
2022/03/10 07:16:41;;;;;;;;;;;;;;;13.56;41.30;102092.59;4980041;28;99488;-63
2022/03/10 07:19:09;;;;;;;;;;;;;;;13.67;41.41;102095.22;4983222;28;97931;-63
2022/03/10 07:21:37;;;;;;;;;;;;;;;13.74;41.42;102095.03;4982739;28;97848;-63
2022/03/10 07:24:05;;;;;;;;;;;;;;;13.83;41.44;102098.16;4966835;28;99126;-63
2022/03/10 07:26:30;;;;;;;;;;;;;;;13.90;41.42;102093.38;4963037;28;101155;-65
2022/03/10 07:28:59;;;;;;;;;;;;;;;13.99;41.57;102100.03;4962207;28;128382;-65
2022/03/10 07:31:26;;;;;;;;;;;;;;;14.07;41.66;102105.00;4982929;28;98132;-65
2022/03/10 07:33:52;;;;;;;;;;;;;;;14.19;41.53;102104.88;4982104;28;98223;-64
2022/03/10 07:36:18;;;;;;;;;;;;;;;14.33;41.56;102102.59;4980534;28;114858;-63
2022/03/10 07:38:44;;;;;;;;;;;;;;;14.48;41.91;102106.31;4983199;28;98279;-65
2022/03/10 07:41:10;;;;;;;;;;;;;;;14.64;41.81;102107.34;4979976;28;116675;-64
2022/03/10 07:43:36;;;;;;;;;;;;;;;14.83;41.46;102110.53;4981733;28;128121;-64
2022/03/10 07:46:05;;;;;;;;;;;;;;;15.01;41.54;102108.50;4981392;28;127709;-66
2022/03/10 07:48:31;;;;;;;;;;;;;;;15.22;41.71;102108.44;4983041;28;98744;-65
2022/03/10 07:50:57;;;;;;;;;;;;;;;15.45;41.43;102111.88;4978492;28;97762;-65
2022/03/10 07:53:23;;;;;;;;;;;;;;;15.69;41.44;102110.47;4962372;28;98470;-65
2022/03/10 07:55:54;;;;;;;;;;;;;;;15.94;41.27;102103.53;4943254;28;126094;-63
2022/03/10 07:58:23;;;;;;;;;;;;;;;16.20;41.48;102107.19;4962768;28;98010;-63
2022/03/10 08:00:49;;;;;;;;;;;;;;;16.48;41.12;102099.69;4962435;28;97806;-63
2022/03/10 08:03:15;;;;;;;;;;;;;;;16.76;41.19;102098.41;4944866;28;98289;-65
2022/03/10 08:05:43;;;;;;;;;;;;;;;17.17;41.10;102088.34;4961279;28;128170;-65
2022/03/10 08:08:09;;;;;;;;;;;;;;;17.65;40.47;102094.34;4961203;28;119909;-63
2022/03/10 08:10:35;;;;;;;;;;;;;;;18.31;39.88;102087.84;4961443;28;118387;-63
2022/03/10 08:13:01;;;;;;;;;;;;;;;19.02;39.41;102086.63;4962673;28;99092;-65
2022/03/10 08:15:27;;;;;;;;;;;;;;;19.89;38.70;102094.03;4960487;28;127586;-65
2022/03/10 08:17:53;;;;;;;;;;;;;;;20.76;37.80;102091.81;4960385;28;98199;-64
2022/03/10 08:20:19;;;;;;;;;;;;;;;21.73;37.20;102097.59;4953895;28;116644;-65
2022/03/10 08:22:45;;;;;;;;;;;;;;;22.88;36.27;102100.09;4961632;28;127978;-65
2022/03/10 08:25:11;;;;;;;;;;;;;;;24.25;35.00;102097.59;4978631;28;127132;-64
2022/03/10 08:27:37;;;;;;;;;;;;;;;25.66;34.16;102103.50;4981422;28;127425;-64
2022/03/10 08:30:03;;;;;;;;;;;;;;;27.05;32.84;102116.47;4982593;28;97858;-64
2022/03/10 08:32:30;;;;;;;;;;;;;;;28.40;31.74;102113.91;4981289;28;116149;-64
2022/03/10 08:34:56;;;;;;;;;;;;;;;29.60;31.00;102126.84;4981240;28;99065;-63
2022/03/10 08:37:23;;;;;;;;;;;;;;;31.07;30.22;102130.97;4981337;28;125690;-64
2022/03/10 08:39:48;;;;;;;;;;;;;;;32.47;29.38;102126.59;4981565;28;97815;-63
2022/03/10 08:42:14;;;;;;;;;;;;;;;33.50;28.47;102117.78;4981069;28;102537;-63
2022/03/10 08:44:40;;;;;;;;;;;;;;;34.23;28.60;102122.72;4981749;28;98508;-64
2022/03/10 08:47:06;;;;;;;;;;;;;;;35.07;28.19;102127.13;4962396;28;117404;-64
2022/03/10 08:49:32;;;;;;;;;;;;;;;36.03;27.36;102123.56;4980618;28;111976;-64
2022/03/10 08:51:58;;;;;;;;;;;;;;;36.84;27.07;102130.13;4962502;28;114361;-64
2022/03/10 08:54:24;;;;;;;;;;;;;;;37.46;26.58;102120.16;4981980;28;98613;-63
2022/03/10 08:56:50;;;;;;;;;;;;;;;38.25;25.99;102113.75;4982034;28;120199;-63
2022/03/10 08:59:16;;;;;;;;;;;;;;;39.12;25.85;102122.69;4980869;28;98971;-63
2022/03/10 09:01:42;;;;;;;;;;;;;;;39.89;25.24;102117.00;4980984;28;98456;-63
2022/03/10 09:04:08;;;;;;;;;;;;;;;40.34;25.03;102118.56;4981121;28;98288;-63
2022/03/10 09:06:34;;;;;;;;;;;;;;;40.94;24.96;102107.97;4981188;28;98030;-64
2022/03/10 09:09:00;;;;;;;;;;;;;;;41.61;24.55;102114.00;4969967;28;97781;-64
2022/03/10 09:11:26;;;;;;;;;;;;;;;42.11;24.43;102106.22;4942556;28;108891;-64
2022/03/10 09:13:52;;;;;;;;;;;;;;;42.70;23.75;102106.94;4960432;28;121174;-64
2022/03/10 09:16:19;;;;;;;;;;;;;;;43.44;23.36;102109.38;4942531;28;120097;-64
2022/03/10 09:18:45;;;;;;;;;;;;;;;43.86;23.00;102103.50;4944036;28;98179;-65
2022/03/10 09:21:12;;;;;;;;;;;;;;;44.10;23.15;102098.16;4962063;28;98204;-64
2022/03/10 09:23:38;;;;;;;;;;;;;;;43.97;23.59;102095.38;4961575;28;98424;-64
2022/03/10 09:26:04;;;;;;;;;;;;;;;43.87;23.78;102088.06;4960645;28;98204;-64
2022/03/10 09:28:30;;;;;;;;;;;;;;;43.90;23.66;102086.31;4961309;28;117112;-64
2022/03/10 09:30:56;;;;;;;;;;;;;;;43.99;23.15;102084.38;4972779;28;120765;-64
2022/03/10 09:33:21;;;;;;;;;;;;;;;43.48;23.61;102080.94;4980280;28;128081;-64
2022/03/10 09:35:47;;;;;;;;;;;;;;;42.96;23.93;102079.38;4979628;28;125690;-63
2022/03/10 09:38:13;;;;;;;;;;;;;;;42.21;24.42;102079.66;4979549;28;97895;-63
2022/03/10 09:40:39;;;;;;;;;;;;;;;41.60;25.29;102074.88;4980305;28;98316;-65
2022/03/10 09:43:05;;;;;;;;;;;;;;;41.24;25.26;102078.59;4980610;28;128079;-63
2022/03/10 09:45:31;;;;;;;;;;;;;;;41.15;25.18;102073.56;4962179;28;98569;-63
2022/03/10 09:47:57;;;;;;;;;;;;;;;41.30;24.87;102079.66;4978269;28;119185;-65
2022/03/10 09:50:23;;;;;;;;;;;;;;;41.69;24.45;102069.34;4977211;28;128595;-64
2022/03/10 09:52:49;;;;;;;;;;;;;;;41.91;23.90;102070.38;4980182;28;118188;-65
2022/03/10 09:55:17;;;;;;;;;;;;;;;41.81;22.95;102065.78;4979280;28;126488;-64
2022/03/10 09:57:45;;;;;;;;;;;;;;;41.31;22.67;102066.31;4975973;28;98025;-63
2022/03/10 10:00:13;;;;;;;;;;;;;;;40.85;22.59;102068.22;4960298;28;98403;-65
2022/03/10 10:02:40;;;;;;;;;;;;;;;40.11;23.11;102075.06;4959775;28;99675;-65
2022/03/10 10:05:28;;;;;;;;;;;;;;;39.31;23.39;102062.81;4960519;28;98084;-63
2022/03/10 10:08:00;;;;;;;;;;;;;;;38.48;23.98;102059.63;4968895;28;98113;-64
2022/03/10 10:10:27;;;;;;;;;;;;;;;37.97;24.45;102053.00;4980683;28;98028;-65
2022/03/10 10:12:53;;;;;;;;;;;;;;;37.68;24.54;102058.06;4964573;28;99377;-65
2022/03/10 10:15:19;;;;;;;;;;;;;;;37.25;24.96;102052.81;4950623;28;127396;-64
2022/03/10 10:17:45;;;;;;;;;;;;;;;37.00;24.76;102050.22;4961010;28;98087;-63
2022/03/10 10:20:11;;;;;;;;;;;;;;;36.79;25.11;102057.56;4941661;28;98298;-64
2022/03/10 10:22:37;;;;;;;;;;;;;;;36.58;25.07;102064.06;4960689;28;98604;-64
2022/03/10 10:25:06;;;;;;;;;;;;;;;36.38;25.34;102063.75;4958606;28;126902;-64
2022/03/10 10:27:32;;;;;;;;;;;;;;;36.16;25.47;102075.44;4962710;28;97819;-64
2022/03/10 10:30:00;;;;;;;;;;;;;;;35.94;25.55;102060.69;4960018;28;98990;-64
2022/03/10 10:32:27;;;;;;;;;;;;;;;35.78;25.68;102053.50;4960322;28;98549;-65
2022/03/10 10:35:14;;;;;;;;;;;;;;;35.54;25.44;102063.56;4940920;28;98293;-63
2022/03/10 10:37:42;;;;;;;;;;;;;;;35.14;25.14;102059.13;4941393;28;98136;-63
2022/03/10 10:40:09;;;;;;;;;;;;;;;34.76;24.84;102064.22;4937970;28;99164;-64
2022/03/10 10:42:36;;;;;;;;;;;;;;;34.52;24.69;102059.34;4940795;28;97875;-64
2022/03/10 10:45:02;;;;;;;;;;;;;;;34.33;24.86;102050.06;4939652;28;108893;-64
2022/03/10 10:47:28;;;;;;;;;;;;;;;34.23;24.81;102055.59;4938584;28;97999;-64
2022/03/10 10:50:04;;;;;;;;;;;;;;;34.14;25.13;102059.56;4956515;28;98751;-63
2022/03/10 10:52:37;;;;;;;;;;;;;;;34.06;25.03;102057.13;4960247;28;98851;-64
2022/03/10 10:55:05;;;;;;;;;;;;;;;34.05;24.99;102058.31;4943999;28;98309;-64
2022/03/10 10:57:34;;;;;;;;;;;;;;;34.05;25.14;102055.53;4941045;28;97842;-63
2022/03/10 11:00:08;;;;;;;;;;;;;;;34.07;25.09;102053.91;4939852;28;98423;-64
2022/03/10 11:02:37;;;;;;;;;;;;;;;34.14;25.29;102058.75;4940358;28;98331;-63
2022/03/10 11:05:03;;;;;;;;;;;;;;;34.25;25.06;102050.41;4939733;28;98402;-63
2022/03/10 11:07:29;;;;;;;;;;;;;;;34.34;25.06;102046.06;4937402;28;110405;-63
2022/03/10 11:09:55;;;;;;;;;;;;;;;34.43;25.44;102054.09;4920612;28;127165;-64
2022/03/10 11:12:20;;;;;;;;;;;;;;;34.53;25.23;102044.97;4940461;28;123172;-62
2022/03/10 11:14:47;;;;;;;;;;;;;;;34.64;25.30;102031.81;4974374;28;99904;-64
2022/03/10 11:17:14;;;;;;;;;;;;;;;34.79;25.37;102045.84;4960053;28;97821;-64
2022/03/10 11:19:46;;;;;;;;;;;;;;;34.90;25.10;102041.06;4959521;28;98324;-63
2022/03/10 11:22:31;;;;;;;;;;;;;;;35.05;25.23;102027.88;4951836;28;98252;-63
2022/03/10 11:25:17;;;;;;;;;;;;;;;35.20;24.87;102039.91;4940019;28;98141;-64
2022/03/10 11:28:04;;;;;;;;;;;;;;;35.36;24.94;102037.50;4940282;28;97704;-65
2022/03/10 11:30:31;;;;;;;;;;;;;;;35.47;24.95;102035.50;4939581;28;98266;-63
2022/03/10 11:33:13;;;;;;;;;;;;;;;35.55;24.76;102022.31;4938980;28;98301;-65
2022/03/10 11:35:43;;;;;;;;;;;;;;;35.61;24.70;102035.53;4942459;28;98222;-64
2022/03/10 11:38:10;;;;;;;;;;;;;;;35.69;24.56;102033.50;4961380;28;97830;-63
2022/03/10 11:40:42;;;;;;;;;;;;;;;35.78;24.49;102035.88;4962556;28;99030;-64
2022/03/10 11:43:08;;;;;;;;;;;;;;;35.77;24.57;102026.66;4962991;28;98609;-63
2022/03/10 11:45:34;;;;;;;;;;;;;;;35.73;24.43;102025.88;4962766;28;97926;-64
2022/03/10 11:48:22;;;;;;;;;;;;;;;35.64;24.62;102028.28;4945128;28;97846;-63
2022/03/10 11:50:49;;;;;;;;;;;;;;;35.54;24.63;102029.13;4962517;28;98406;-65
2022/03/10 11:53:15;;;;;;;;;;;;;;;35.49;24.60;102023.91;4962645;28;98776;-65
2022/03/10 11:55:46;;;;;;;;;;;;;;;35.39;24.40;102026.28;4961697;28;127802;-63
2022/03/10 11:58:13;;;;;;;;;;;;;;;35.24;24.71;102030.28;4962922;28;97621;-65
2022/03/10 12:00:46;;;;;;;;;;;;;;;35.09;24.70;102023.09;4943706;28;98045;-65
2022/03/10 12:03:36;;;;;;;;;;;;;;;34.95;25.14;102023.06;4962787;28;98364;-65
2022/03/10 12:06:02;;;;;;;;;;;;;;;34.75;24.93;102023.44;4953996;28;98295;-63
2022/03/10 12:08:29;;;;;;;;;;;;;;;34.53;24.92;102025.38;4962549;28;97697;-63
2022/03/10 12:10:56;;;;;;;;;;;;;;;34.34;24.98;102028.47;4962915;28;98774;-64
2022/03/10 12:13:37;;;;;;;;;;;;;;;34.12;25.07;102027.59;4962255;28;98437;-65
2022/03/10 12:16:07;;;;;;;;;;;;;;;33.84;25.50;102009.44;4942264;28;116046;-63
2022/03/10 12:18:40;;;;;;;;;;;;;;;33.59;25.15;102020.44;4970002;28;97661;-65
2022/03/10 12:21:35;;;;;;;;;;;;;;;33.30;25.78;102021.41;4981616;28;98479;-64
2022/03/10 12:24:03;;;;;;;;;;;;;;;32.90;25.52;102020.22;4973298;28;98128;-65
2022/03/10 12:26:36;;;;;;;;;;;;;;;32.57;25.61;102013.50;4979302;28;98570;-65
2022/03/10 12:29:07;;;;;;;;;;;;;;;32.28;25.75;101998.41;4983264;28;97902;-64
2022/03/10 12:31:35;;;;;;;;;;;;;;;31.97;25.73;101997.59;4979831;28;99123;-65
2022/03/10 12:34:27;;;;;;;;;;;;;;;31.69;25.89;101988.81;4963498;28;98692;-64
2022/03/10 12:36:54;;;;;;;;;;;;;;;31.38;25.85;101987.16;4959974;28;125068;-63
2022/03/10 12:39:21;;;;;;;;;;;;;;;31.10;26.12;101999.41;4982565;28;98141;-63